Time;durP1;ratioP1;P1;durP2;ratioP2;P2;SDS_P1;SDS_P2;PMS_P1;PMS_P2;Temp;Humidity;BMP_temperature;BMP_pressure;BME280_temperature;BME280_humidity;BME280_pressure;Samples;Min_cycle;Max_cycle;Signal;HPM_P1;HPM_P2
2024/04/14 00:01:20;;;;;;;3.95;2.08;;;;;;;;;;4345278;32;317008;-80
2024/04/14 00:03:46;;;;;;;4.25;2.22;;;;;;;;;;4340685;32;317420;-80
2024/04/14 00:06:12;;;;;;;5.22;2.47;;;;;;;;;;4351818;32;317118;-80
2024/04/14 00:08:39;;;;;;;4.12;2.20;;;;;;;;;;4351631;32;317094;-80
2024/04/14 00:11:04;;;;;;;6.00;2.60;;;;;;;;;;4335041;32;333531;-80
2024/04/14 00:13:32;;;;;;;6.05;2.65;;;;;;;;;;4350332;32;317544;-82
2024/04/14 00:15:59;;;;;;;7.37;3.12;;;;;;;;;;4341939;32;317585;-82
2024/04/14 00:18:26;;;;;;;4.65;3.15;;;;;;;;;;4350305;32;317388;-82
2024/04/14 00:20:52;;;;;;;9.40;3.77;;;;;;;;;;4340769;32;316718;-82
2024/04/14 00:23:18;;;;;;;6.93;3.47;;;;;;;;;;4343668;32;317031;-81
2024/04/14 00:25:44;;;;;;;7.72;4.00;;;;;;;;;;4352053;32;317577;-83
2024/04/14 00:28:11;;;;;;;8.02;4.43;;;;;;;;;;4339612;32;373847;-81
2024/04/14 00:30:38;;;;;;;11.10;4.05;;;;;;;;;;4349895;32;316675;-83
2024/04/14 00:33:05;;;;;;;9.32;3.65;;;;;;;;;;4334677;32;318080;-81
2024/04/14 00:35:32;;;;;;;19.58;5.10;;;;;;;;;;4352235;32;317196;-81
2024/04/14 00:37:59;;;;;;;6.37;4.05;;;;;;;;;;4342362;32;317806;-81
2024/04/14 00:40:24;;;;;;;11.18;4.53;;;;;;;;;;4359746;32;317072;-81
2024/04/14 00:42:56;;;;;;;6.40;4.45;;;;;;;;;;4336168;32;333785;-81
2024/04/14 00:45:22;;;;;;;5.68;3.53;;;;;;;;;;4336630;32;316384;-82
2024/04/14 00:47:50;;;;;;;10.05;3.97;;;;;;;;;;4325421;32;317158;-83
2024/04/14 00:50:16;;;;;;;10.85;3.50;;;;;;;;;;4335179;32;318223;-83
2024/04/14 00:52:43;;;;;;;8.55;4.28;;;;;;;;;;4346559;32;318156;-82
2024/04/14 00:55:11;;;;;;;5.65;3.97;;;;;;;;;;4333927;32;317713;-81
2024/04/14 00:57:39;;;;;;;5.95;3.40;;;;;;;;;;4349721;32;338899;-81
2024/04/14 01:00:08;;;;;;;5.12;3.20;;;;;;;;;;4340609;32;317130;-82
2024/04/14 01:02:36;;;;;;;7.32;2.95;;;;;;;;;;4350585;32;317270;-81
2024/04/14 01:05:04;;;;;;;4.87;2.67;;;;;;;;;;4333062;32;317390;-81
2024/04/14 01:07:31;;;;;;;4.60;3.05;;;;;;;;;;4348603;32;316690;-81
2024/04/14 01:09:58;;;;;;;4.28;3.58;;;;;;;;;;4339465;32;317101;-82
2024/04/14 01:12:25;;;;;;;3.58;2.67;;;;;;;;;;4348853;32;317232;-81
2024/04/14 01:14:51;;;;;;;8.20;3.17;;;;;;;;;;4338406;32;322290;-81
2024/04/14 01:17:18;;;;;;;5.25;3.37;;;;;;;;;;4341860;32;351637;-81
2024/04/14 01:19:43;;;;;;;4.60;2.72;;;;;;;;;;4349907;32;316534;-82
2024/04/14 01:22:12;;;;;;;8.57;3.25;;;;;;;;;;4340159;32;317079;-81
2024/04/14 01:24:37;;;;;;;5.40;3.45;;;;;;;;;;4349696;32;317153;-81
2024/04/14 01:27:06;;;;;;;9.13;3.55;;;;;;;;;;4334615;32;317137;-81
2024/04/14 01:29:32;;;;;;;6.50;3.10;;;;;;;;;;4350136;32;317026;-81
2024/04/14 01:31:58;;;;;;;4.87;2.87;;;;;;;;;;4339573;32;348007;-81
2024/04/14 01:34:24;;;;;;;7.57;3.65;;;;;;;;;;4349634;32;317180;-81
2024/04/14 01:36:51;;;;;;;14.40;3.22;;;;;;;;;;4340875;32;317182;-81
2024/04/14 01:39:16;;;;;;;9.70;3.08;;;;;;;;;;4341005;32;318058;-81
2024/04/14 01:41:43;;;;;;;5.68;3.30;;;;;;;;;;4349884;32;317055;-81
2024/04/14 01:44:10;;;;;;;4.90;3.12;;;;;;;;;;4339544;32;317017;-81
2024/04/14 01:46:37;;;;;;;8.05;3.62;;;;;;;;;;4348613;32;316518;-81
2024/04/14 01:49:03;;;;;;;7.63;3.27;;;;;;;;;;4333634;32;317625;-81
2024/04/14 01:51:29;;;;;;;11.15;3.47;;;;;;;;;;4349846;32;337990;-81
2024/04/14 01:53:55;;;;;;;4.37;3.05;;;;;;;;;;4338936;32;318092;-81
2024/04/14 01:56:22;;;;;;;3.05;2.40;;;;;;;;;;4351349;32;317971;-81
2024/04/14 01:58:47;;;;;;;7.07;3.10;;;;;;;;;;4341174;32;358726;-81
2024/04/14 02:01:16;;;;;;;4.12;2.80;;;;;;;;;;4345883;32;316494;-81
2024/04/14 02:03:41;;;;;;;7.07;3.65;;;;;;;;;;4351932;32;352775;-81
2024/04/14 02:06:08;;;;;;;6.90;3.97;;;;;;;;;;4341981;32;323592;-81
2024/04/14 02:08:34;;;;;;;7.78;4.60;;;;;;;;;;4352908;32;316430;-81
2024/04/14 02:11:01;;;;;;;7.20;3.45;;;;;;;;;;4335662;32;317289;-81
2024/04/14 02:13:27;;;;;;;9.80;4.12;;;;;;;;;;4347491;32;356122;-81
2024/04/14 02:15:54;;;;;;;7.22;3.95;;;;;;;;;;4342382;32;317060;-81
2024/04/14 02:18:21;;;;;;;8.80;4.55;;;;;;;;;;4352756;32;317209;-82
2024/04/14 02:20:47;;;;;;;5.50;4.35;;;;;;;;;;4341666;32;316563;-81
2024/04/14 02:23:13;;;;;;;8.10;4.85;;;;;;;;;;4346401;32;317276;-81
2024/04/14 02:25:40;;;;;;;7.70;4.40;;;;;;;;;;4353019;32;316333;-81
2024/04/14 02:28:06;;;;;;;10.23;4.43;;;;;;;;;;4342252;32;317308;-81
2024/04/14 02:30:32;;;;;;;6.07;4.70;;;;;;;;;;4352085;32;348789;-81
2024/04/14 02:32:58;;;;;;;6.55;4.37;;;;;;;;;;4336772;32;316509;-81
2024/04/14 02:35:26;;;;;;;13.90;4.53;;;;;;;;;;4352828;32;316603;-81
2024/04/14 02:37:52;;;;;;;11.50;4.57;;;;;;;;;;4343283;32;318346;-81
2024/04/14 02:40:19;;;;;;;10.32;4.03;;;;;;;;;;4354341;32;318650;-82
2024/04/14 02:42:45;;;;;;;6.22;4.78;;;;;;;;;;4347533;32;318117;-80
2024/04/14 02:45:14;;;;;;;9.23;4.82;;;;;;;;;;4350773;32;316389;-81
2024/04/14 02:47:40;;;;;;;6.20;4.65;;;;;;;;;;4353553;32;317242;-81
2024/04/14 02:50:08;;;;;;;7.18;3.78;;;;;;;;;;4342565;32;316922;-81
2024/04/14 02:52:35;;;;;;;8.68;4.78;;;;;;;;;;4352626;32;317334;-81
2024/04/14 02:55:01;;;;;;;7.10;4.75;;;;;;;;;;4336870;32;316878;-80
2024/04/14 02:57:27;;;;;;;7.03;4.78;;;;;;;;;;4352534;32;316748;-80
2024/04/14 02:59:54;;;;;;;9.50;5.20;;;;;;;;;;4343265;32;316985;-80
2024/04/14 03:02:19;;;;;;;11.05;4.68;;;;;;;;;;4352527;32;317375;-80
2024/04/14 03:04:48;;;;;;;12.68;5.07;;;;;;;;;;4341158;32;363588;-80
2024/04/14 03:07:14;;;;;;;9.93;4.57;;;;;;;;;;4344440;32;318091;-81
2024/04/14 03:09:42;;;;;;;9.23;4.80;;;;;;;;;;4351404;32;317151;-81
2024/04/14 03:12:07;;;;;;;8.80;4.37;;;;;;;;;;4342889;32;316848;-81
2024/04/14 03:14:34;;;;;;;11.57;5.60;;;;;;;;;;4362944;32;315329;-80
2024/04/14 03:17:00;;;;;;;12.37;7.28;;;;;;;;;;4348961;32;316728;-80
2024/04/14 03:19:27;;;;;;;18.52;7.35;;;;;;;;;;4365622;32;317985;-80
2024/04/14 03:21:52;;;;;;;10.93;6.65;;;;;;;;;;4349108;32;317450;-81
2024/04/14 03:24:19;;;;;;;8.88;5.72;;;;;;;;;;4352217;32;318348;-82
2024/04/14 03:26:46;;;;;;;7.50;4.85;;;;;;;;;;4351467;32;331262;-82
2024/04/14 03:29:13;;;;;;;7.90;5.18;;;;;;;;;;4331237;32;417526;-81
2024/04/14 03:31:38;;;;;;;7.97;5.18;;;;;;;;;;4351266;32;317164;-81
2024/04/14 03:34:05;;;;;;;6.65;4.97;;;;;;;;;;4341081;32;316902;-81
2024/04/14 03:36:31;;;;;;;8.80;5.40;;;;;;;;;;4350564;32;335775;-81
2024/04/14 03:38:57;;;;;;;14.43;5.43;;;;;;;;;;4337249;32;317204;-81
2024/04/14 03:41:24;;;;;;;6.62;3.97;;;;;;;;;;4351150;32;318298;-81
2024/04/14 03:43:52;;;;;;;6.90;3.50;;;;;;;;;;4337635;32;317237;-80
2024/04/14 03:46:20;;;;;;;5.40;3.87;;;;;;;;;;4347669;32;338813;-79
2024/04/14 03:48:46;;;;;;;13.00;5.45;;;;;;;;;;4338937;32;344964;-79
2024/04/14 03:51:12;;;;;;;9.65;5.35;;;;;;;;;;4343041;32;318201;-79
2024/04/14 03:53:40;;;;;;;14.13;6.47;;;;;;;;;;4348435;32;317192;-79
2024/04/14 03:56:06;;;;;;;12.35;7.03;;;;;;;;;;4337886;32;317569;-79
2024/04/14 03:58:34;;;;;;;12.23;6.15;;;;;;;;;;4347838;32;318032;-79
2024/04/14 04:01:01;;;;;;;19.75;7.22;;;;;;;;;;4332080;32;318322;-79
2024/04/14 04:03:27;;;;;;;13.88;6.65;;;;;;;;;;4348771;32;318339;-79
2024/04/14 04:05:54;;;;;;;20.40;9.10;;;;;;;;;;4337741;32;318297;-79
2024/04/14 04:08:21;;;;;;;20.15;8.77;;;;;;;;;;4346923;32;318034;-79
2024/04/14 04:10:58;;;;;;;19.08;7.32;;;;;;;;;;4338684;32;318160;-79
2024/04/14 04:13:23;;;;;;;20.85;7.43;;;;;;;;;;4347196;32;318300;-79
2024/04/14 04:15:54;;;;;;;16.20;7.22;;;;;;;;;;4338186;32;318135;-79
2024/04/14 04:18:22;;;;;;;15.52;6.37;;;;;;;;;;4347839;32;317540;-79
2024/04/14 04:20:53;;;;;;;25.62;11.38;;;;;;;;;;4337879;32;318324;-78
2024/04/14 04:23:19;;;;;;;59.65;23.70;;;;;;;;;;4340963;32;319452;-78
2024/04/14 04:25:45;;;;;;;31.77;13.60;;;;;;;;;;4347155;32;318659;-78
2024/04/14 04:28:11;;;;;;;32.08;11.68;;;;;;;;;;4334927;32;419956;-79
2024/04/14 04:30:38;;;;;;;19.15;9.27;;;;;;;;;;4347450;32;319531;-78
2024/04/14 04:33:04;;;;;;;19.15;9.52;;;;;;;;;;4330726;32;318394;-78
2024/04/14 04:35:32;;;;;;;17.23;8.70;;;;;;;;;;4345899;32;318286;-78
2024/04/14 04:37:58;;;;;;;15.02;8.38;;;;;;;;;;4336868;32;318431;-78
2024/04/14 04:40:25;;;;;;;9.98;6.03;;;;;;;;;;4346535;32;318182;-78
2024/04/14 04:42:52;;;;;;;14.85;5.90;;;;;;;;;;4335334;32;317269;-78
2024/04/14 04:45:19;;;;;;;14.02;6.65;;;;;;;;;;4339283;32;353119;-80
2024/04/14 04:47:46;;;;;;;17.75;7.43;;;;;;;;;;4346259;32;318199;-79
2024/04/14 04:50:13;;;;;;;14.43;9.05;;;;;;;;;;4333397;32;417402;-79
2024/04/14 04:52:40;;;;;;;20.25;9.60;;;;;;;;;;4347467;32;318189;-79
2024/04/14 04:55:07;;;;;;;23.12;11.32;;;;;;;;;;4332665;32;318072;-80
2024/04/14 04:57:33;;;;;;;20.05;9.00;;;;;;;;;;4348040;32;320174;-79
2024/04/14 04:59:59;;;;;;;13.18;7.68;;;;;;;;;;4317594;32;318316;-79
2024/04/14 05:02:25;;;;;;;12.18;7.50;;;;;;;;;;4346176;32;318187;-79
2024/04/14 05:04:53;;;;;;;12.77;6.90;;;;;;;;;;4336520;32;317378;-78
2024/04/14 05:07:18;;;;;;;20.60;7.93;;;;;;;;;;4341496;32;317157;-77
2024/04/14 05:09:46;;;;;;;13.40;7.60;;;;;;;;;;4347983;32;317819;-78
2024/04/14 05:12:12;;;;;;;19.45;6.90;;;;;;;;;;4335574;32;419171;-78
2024/04/14 05:14:40;;;;;;;15.95;7.37;;;;;;;;;;4345583;32;317805;-77
2024/04/14 05:17:06;;;;;;;12.05;7.62;;;;;;;;;;4338177;32;318349;-78
2024/04/14 05:19:32;;;;;;;11.90;8.00;;;;;;;;;;4348068;32;317603;-78
2024/04/14 05:21:59;;;;;;;17.35;8.43;;;;;;;;;;4336963;32;318247;-77
2024/04/14 05:24:27;;;;;;;8.63;6.12;;;;;;;;;;4347033;32;318144;-77
2024/04/14 05:26:54;;;;;;;8.57;6.00;;;;;;;;;;4338344;32;317006;-77
2024/04/14 05:29:27;;;;;;;13.73;5.95;;;;;;;;;;4341891;32;317106;-77
2024/04/14 05:31:53;;;;;;;13.15;5.87;;;;;;;;;;4339712;32;318368;-79
2024/04/14 05:34:20;;;;;;;18.77;6.37;;;;;;;;;;4349183;32;318332;-78
2024/04/14 05:36:46;;;;;;;12.18;5.68;;;;;;;;;;4348517;32;318337;-79
2024/04/14 05:39:13;;;;;;;16.65;6.00;;;;;;;;;;4333000;32;417941;-80
2024/04/14 05:41:40;;;;;;;14.82;5.82;;;;;;;;;;4351602;32;317521;-80
2024/04/14 05:44:08;;;;;;;29.23;5.62;;;;;;;;;;4342288;32;318036;-80
2024/04/14 05:46:34;;;;;;;9.20;4.95;;;;;;;;;;4351905;32;318586;-82
2024/04/14 05:49:03;;;;;;;12.75;5.35;;;;;;;;;;4333067;32;316490;-81
2024/04/14 05:51:29;;;;;;;13.50;5.87;;;;;;;;;;4348423;32;318692;-80
2024/04/14 05:53:57;;;;;;;9.53;5.70;;;;;;;;;;4337046;32;343069;-78
2024/04/14 05:56:24;;;;;;;13.48;6.40;;;;;;;;;;4338756;32;316672;-78
2024/04/14 05:58:50;;;;;;;9.98;6.25;;;;;;;;;;4339960;32;318244;-79
2024/04/14 06:01:19;;;;;;;16.77;5.70;;;;;;;;;;4344311;32;317116;-76
2024/04/14 06:03:49;;;;;;;11.48;5.87;;;;;;;;;;4350213;32;318322;-78
2024/04/14 06:06:26;;;;;;;21.77;6.50;;;;;;;;;;4337610;32;418172;-77
2024/04/14 06:08:55;;;;;;;11.27;5.35;;;;;;;;;;4338918;32;318392;-81
2024/04/14 06:11:20;;;;;;;9.13;4.65;;;;;;;;;;4345261;32;318197;-79
2024/04/14 06:13:47;;;;;;;22.35;5.75;;;;;;;;;;4350084;32;317209;-81
2024/04/14 06:16:14;;;;;;;12.40;4.97;;;;;;;;;;4357643;32;318242;-79
2024/04/14 06:18:42;;;;;;;9.82;4.57;;;;;;;;;;4358781;32;317055;-81
2024/04/14 06:21:07;;;;;;;9.32;5.28;;;;;;;;;;4334270;32;317096;-79
2024/04/14 06:23:34;;;;;;;11.85;5.43;;;;;;;;;;4349637;32;316496;-79
2024/04/14 06:26:02;;;;;;;7.12;3.83;;;;;;;;;;4339250;32;318112;-77
2024/04/14 06:28:30;;;;;;;6.37;4.95;;;;;;;;;;4350087;32;317138;-75
2024/04/14 06:30:56;;;;;;;5.07;3.92;;;;;;;;;;4338481;32;317339;-75
2024/04/14 06:33:25;;;;;;;10.95;4.57;;;;;;;;;;4330673;32;317425;-75
2024/04/14 06:35:57;;;;;;;9.05;5.00;;;;;;;;;;4325051;32;317526;-76
2024/04/14 06:38:26;;;;;;;11.30;4.05;;;;;;;;;;4333773;32;315491;-77
2024/04/14 06:40:51;;;;;;;8.23;3.92;;;;;;;;;;4324478;32;318255;-76
2024/04/14 06:43:22;;;;;;;11.90;5.25;;;;;;;;;;4342268;32;316868;-80
2024/04/14 06:45:53;;;;;;;13.40;5.12;;;;;;;;;;4339495;32;318467;-76
2024/04/14 06:48:21;;;;;;;11.07;4.70;;;;;;;;;;4349771;32;318335;-77
2024/04/14 06:50:46;;;;;;;11.63;7.37;;;;;;;;;;4339904;32;318716;-76
2024/04/14 06:53:14;;;;;;;20.50;5.60;;;;;;;;;;4340998;32;318232;-76
2024/04/14 06:55:41;;;;;;;9.15;6.12;;;;;;;;;;4346085;32;318101;-76
2024/04/14 06:58:07;;;;;;;12.93;5.65;;;;;;;;;;4337278;32;317135;-77
2024/04/14 07:00:33;;;;;;;14.40;6.18;;;;;;;;;;4345812;32;318351;-75
2024/04/14 07:03:00;;;;;;;21.98;5.70;;;;;;;;;;4330567;32;318280;-77
2024/04/14 07:05:26;;;;;;;12.35;5.47;;;;;;;;;;4347286;32;318656;-75
2024/04/14 07:07:52;;;;;;;11.10;5.10;;;;;;;;;;4337661;32;318512;-75
2024/04/14 07:10:19;;;;;;;9.43;5.20;;;;;;;;;;4347208;32;318215;-77
2024/04/14 07:12:46;;;;;;;16.73;5.75;;;;;;;;;;4340726;32;317267;-77
2024/04/14 07:15:13;;;;;;;8.20;5.07;;;;;;;;;;4339290;32;318291;-76
2024/04/14 07:17:40;;;;;;;14.65;5.10;;;;;;;;;;4346638;32;317146;-76
2024/04/14 07:20:07;;;;;;;8.07;4.03;;;;;;;;;;4337734;32;318410;-76
2024/04/14 07:22:34;;;;;;;6.55;4.85;;;;;;;;;;4347557;32;317238;-77
2024/04/14 07:24:59;;;;;;;12.35;3.92;;;;;;;;;;4331597;32;317094;-76
2024/04/14 07:27:28;;;;;;;11.00;4.68;;;;;;;;;;4347776;32;318341;-77
2024/04/14 07:29:53;;;;;;;7.43;4.35;;;;;;;;;;4336863;32;318526;-77
2024/04/14 07:32:20;;;;;;;7.25;4.35;;;;;;;;;;4347280;32;316627;-79
2024/04/14 07:34:46;;;;;;;15.38;4.05;;;;;;;;;;4338029;32;317018;-79
2024/04/14 07:37:12;;;;;;;8.85;4.32;;;;;;;;;;4341916;32;318275;-79
2024/04/14 07:39:38;;;;;;;7.45;5.97;;;;;;;;;;4346939;32;317402;-80
2024/04/14 07:42:08;;;;;;;7.93;5.05;;;;;;;;;;4337487;32;316977;-81
2024/04/14 07:44:35;;;;;;;6.03;4.62;;;;;;;;;;4347567;32;317269;-81
2024/04/14 07:47:01;;;;;;;6.30;4.20;;;;;;;;;;4343442;32;316511;-81
2024/04/14 07:49:27;;;;;;;10.63;4.22;;;;;;;;;;4342172;32;353578;-81
2024/04/14 07:51:54;;;;;;;7.90;4.50;;;;;;;;;;4323633;32;318248;-81
2024/04/14 07:54:20;;;;;;;7.87;4.10;;;;;;;;;;4331525;32;316923;-81
2024/04/14 07:56:46;;;;;;;15.27;4.85;;;;;;;;;;4316004;32;317278;-81
2024/04/14 07:59:12;;;;;;;20.88;4.50;;;;;;;;;;4333077;32;317493;-81
2024/04/14 08:01:40;;;;;;;14.57;4.40;;;;;;;;;;4323802;32;318639;-81
2024/04/14 08:04:06;;;;;;;14.85;4.85;;;;;;;;;;4333246;32;317921;-81
2024/04/14 08:06:32;;;;;;;6.60;4.22;;;;;;;;;;4323371;32;318342;-80
2024/04/14 08:08:58;;;;;;;9.68;4.53;;;;;;;;;;4327889;32;316616;-80
2024/04/14 08:11:25;;;;;;;7.70;3.90;;;;;;;;;;4335265;32;317078;-82
2024/04/14 08:13:51;;;;;;;7.72;4.60;;;;;;;;;;4336231;32;326486;-81
2024/04/14 08:16:18;;;;;;;17.83;4.28;;;;;;;;;;4346623;32;316485;-81
2024/04/14 08:18:46;;;;;;;17.62;4.75;;;;;;;;;;4333124;32;318418;-81
2024/04/14 08:21:12;;;;;;;7.30;4.00;;;;;;;;;;4348160;32;319775;-81
2024/04/14 08:23:38;;;;;;;7.72;4.05;;;;;;;;;;4337556;32;317219;-81
2024/04/14 08:26:06;;;;;;;8.02;3.47;;;;;;;;;;4348268;32;317032;-81
2024/04/14 08:28:32;;;;;;;7.12;4.22;;;;;;;;;;4336505;32;317125;-81
2024/04/14 08:30:59;;;;;;;9.98;3.58;;;;;;;;;;4340648;32;316921;-82
2024/04/14 08:33:25;;;;;;;8.73;3.95;;;;;;;;;;4346532;32;316369;-81
2024/04/14 08:35:53;;;;;;;9.70;3.62;;;;;;;;;;4336954;32;335503;-81
2024/04/14 08:38:18;;;;;;;5.10;3.10;;;;;;;;;;4348782;32;317470;-83
2024/04/14 08:40:51;;;;;;;3.83;2.67;;;;;;;;;;4332145;32;317340;-81
2024/04/14 08:43:18;;;;;;;5.28;2.50;;;;;;;;;;4347766;32;317010;-83
2024/04/14 08:45:45;;;;;;;5.70;2.35;;;;;;;;;;4338774;32;317470;-83
2024/04/14 08:48:13;;;;;;;5.47;2.55;;;;;;;;;;4348912;32;316369;-82
2024/04/14 08:50:40;;;;;;;5.12;2.05;;;;;;;;;;4338800;32;317014;-82
2024/04/14 08:53:10;;;;;;;6.12;2.37;;;;;;;;;;4341919;32;317172;-81
2024/04/14 08:55:37;;;;;;;6.60;2.70;;;;;;;;;;4342165;32;316378;-82
2024/04/14 08:58:05;;;;;;;4.43;2.35;;;;;;;;;;4352217;32;317412;-81
2024/04/14 09:00:31;;;;;;;21.62;2.72;;;;;;;;;;4349785;32;317002;-78
2024/04/14 09:02:59;;;;;;;5.87;3.25;;;;;;;;;;4324414;32;419229;-78
2024/04/14 09:05:25;;;;;;;3.47;2.67;;;;;;;;;;4347119;32;317325;-78
2024/04/14 09:07:56;;;;;;;4.78;2.95;;;;;;;;;;4339027;32;317049;-78
2024/04/14 09:10:23;;;;;;;10.10;2.50;;;;;;;;;;4348819;32;317037;-78
2024/04/14 09:12:50;;;;;;;6.93;3.03;;;;;;;;;;4331676;32;317918;-78
2024/04/14 09:15:16;;;;;;;4.15;2.35;;;;;;;;;;4348823;32;317176;-79
2024/04/14 09:17:43;;;;;;;10.52;3.12;;;;;;;;;;4340609;32;317166;-79
2024/04/14 09:20:10;;;;;;;3.80;2.30;;;;;;;;;;4350667;32;333537;-79
2024/04/14 09:22:36;;;;;;;4.57;2.47;;;;;;;;;;4342971;32;317161;-78
2024/04/14 09:25:04;;;;;;;9.18;2.60;;;;;;;;;;4341325;32;317441;-79
2024/04/14 09:27:32;;;;;;;4.28;3.15;;;;;;;;;;4348268;32;317011;-78
2024/04/14 09:30:12;;;;;;;8.30;2.37;;;;;;;;;;4337193;32;418710;-78
2024/04/14 09:32:39;;;;;;;4.12;2.58;;;;;;;;;;4339257;32;317048;-79
2024/04/14 09:35:08;;;;;;;4.60;2.40;;;;;;;;;;4344452;32;319561;-79
2024/04/14 09:37:36;;;;;;;11.18;2.50;;;;;;;;;;4335414;32;336745;-79
2024/04/14 09:40:06;;;;;;;12.45;3.53;;;;;;;;;;4349933;32;318211;-79
2024/04/14 09:42:36;;;;;;;5.05;2.40;;;;;;;;;;4340764;32;317596;-78
2024/04/14 09:45:02;;;;;;;4.35;2.22;;;;;;;;;;4345218;32;317360;-79
2024/04/14 09:47:30;;;;;;;8.55;3.20;;;;;;;;;;4349242;32;340777;-79
2024/04/14 09:49:56;;;;;;;3.55;2.10;;;;;;;;;;4341343;32;317863;-79
2024/04/14 09:52:23;;;;;;;6.28;1.85;;;;;;;;;;4351755;32;317380;-79
2024/04/14 09:54:50;;;;;;;4.20;2.50;;;;;;;;;;4333199;32;316955;-78
2024/04/14 09:57:17;;;;;;;13.13;2.55;;;;;;;;;;4349392;32;317122;-78
2024/04/14 09:59:44;;;;;;;3.45;2.30;;;;;;;;;;4338009;32;318299;-78
2024/04/14 10:02:17;;;;;;;5.90;2.40;;;;;;;;;;4348843;32;317418;-80
2024/04/14 10:04:46;;;;;;;3.55;1.80;;;;;;;;;;4334613;32;351660;-79
2024/04/14 10:07:13;;;;;;;3.10;2.35;;;;;;;;;;4351391;32;317319;-79
2024/04/14 10:09:43;;;;;;;5.07;2.28;;;;;;;;;;4338940;32;317296;-78
2024/04/14 10:12:09;;;;;;;4.32;1.95;;;;;;;;;;4347327;32;317245;-78
2024/04/14 10:14:46;;;;;;;4.55;2.47;;;;;;;;;;4337690;32;317534;-79
2024/04/14 10:17:13;;;;;;;8.85;2.17;;;;;;;;;;4347476;32;318457;-79
2024/04/14 10:19:51;;;;;;;6.90;2.40;;;;;;;;;;4337556;32;316932;-81
2024/04/14 10:22:21;;;;;;;2.92;2.05;;;;;;;;;;4350183;32;317295;-79
2024/04/14 10:24:48;;;;;;;7.65;2.85;;;;;;;;;;4341125;32;317058;-79
2024/04/14 10:27:19;;;;;;;4.28;2.33;;;;;;;;;;4356935;32;317217;-79
2024/04/14 10:29:56;;;;;;;3.65;2.10;;;;;;;;;;4345851;32;316603;-79
2024/04/14 10:32:23;;;;;;;3.58;2.30;;;;;;;;;;4351099;32;318120;-80
2024/04/14 10:34:49;;;;;;;9.52;2.42;;;;;;;;;;4336079;32;317338;-80
2024/04/14 10:37:22;;;;;;;8.43;2.42;;;;;;;;;;4350818;32;317305;-80
2024/04/14 10:39:49;;;;;;;7.32;3.03;;;;;;;;;;4326168;32;318034;-79
2024/04/14 10:42:17;;;;;;;3.75;2.15;;;;;;;;;;4334880;32;317231;-79
2024/04/14 10:44:48;;;;;;;5.87;2.83;;;;;;;;;;4323239;32;316530;-79
2024/04/14 10:47:38;;;;;;;10.30;2.58;;;;;;;;;;4335894;32;316489;-79
2024/04/14 10:50:04;;;;;;;4.12;2.42;;;;;;;;;;4337186;32;415663;-80
2024/04/14 10:52:32;;;;;;;2.95;1.67;;;;;;;;;;4354174;32;316975;-80
2024/04/14 10:54:58;;;;;;;8.65;2.37;;;;;;;;;;4332592;32;417910;-79
2024/04/14 10:57:27;;;;;;;5.15;2.67;;;;;;;;;;4351981;32;316740;-79
2024/04/14 10:59:54;;;;;;;7.00;2.30;;;;;;;;;;4333993;32;317311;-80
2024/04/14 11:02:22;;;;;;;6.68;2.08;;;;;;;;;;4350415;32;317181;-78
2024/04/14 11:04:50;;;;;;;2.87;2.12;;;;;;;;;;4334653;32;316461;-80
2024/04/14 11:07:21;;;;;;;4.80;1.75;;;;;;;;;;4350694;32;316507;-80
2024/04/14 11:09:48;;;;;;;6.50;2.12;;;;;;;;;;4341887;32;316828;-80
2024/04/14 11:12:16;;;;;;;5.37;1.62;;;;;;;;;;4352517;32;316826;-80
2024/04/14 11:14:47;;;;;;;10.50;2.87;;;;;;;;;;4339274;32;317118;-79
2024/04/14 11:17:15;;;;;;;8.23;2.30;;;;;;;;;;4333234;32;318327;-80
2024/04/14 11:19:41;;;;;;;5.72;1.98;;;;;;;;;;4326845;32;316670;-80
2024/04/14 11:22:09;;;;;;;13.13;2.92;;;;;;;;;;4336849;32;316843;-80
2024/04/14 11:24:35;;;;;;;2.42;1.70;;;;;;;;;;4336156;32;318379;-80
2024/04/14 11:27:04;;;;;;;3.10;1.77;;;;;;;;;;4345156;32;317203;-80
2024/04/14 11:29:31;;;;;;;6.55;2.00;;;;;;;;;;4350283;32;317223;-80
2024/04/14 11:32:07;;;;;;;3.60;2.42;;;;;;;;;;4331672;32;416428;-81
2024/04/14 11:34:33;;;;;;;6.78;1.80;;;;;;;;;;4346080;32;316915;-80
2024/04/14 11:37:00;;;;;;;2.47;1.65;;;;;;;;;;4341919;32;316444;-81
2024/04/14 11:39:27;;;;;;;4.68;1.83;;;;;;;;;;4348298;32;343905;-80
2024/04/14 11:41:54;;;;;;;7.00;1.90;;;;;;;;;;4338585;32;343513;-79
2024/04/14 11:44:21;;;;;;;1.77;1.60;;;;;;;;;;4332707;32;317252;-80
2024/04/14 11:46:51;;;;;;;2.37;1.85;;;;;;;;;;4344520;32;317205;-80
2024/04/14 11:49:17;;;;;;;11.95;2.58;;;;;;;;;;4339401;32;317795;-79
2024/04/14 11:51:44;;;;;;;6.75;2.17;;;;;;;;;;4340053;32;347699;-83
2024/04/14 11:54:10;;;;;;;3.70;2.33;;;;;;;;;;4330089;32;317069;-83
2024/04/14 11:56:38;;;;;;;4.00;1.83;;;;;;;;;;4335141;32;316479;-82
2024/04/14 11:59:04;;;;;;;3.33;1.52;;;;;;;;;;4368008;32;316349;-83
2024/04/14 12:01:31;;;;;;;3.72;2.00;;;;;;;;;;4355522;32;317156;-83
2024/04/14 12:03:58;;;;;;;2.85;1.73;;;;;;;;;;4359268;32;316698;-83
2024/04/14 12:06:26;;;;;;;8.20;2.58;;;;;;;;;;4337379;32;317259;-83
2024/04/14 12:08:52;;;;;;;10.18;5.05;;;;;;;;;;4352588;32;316473;-81
2024/04/14 12:11:20;;;;;;;9.35;6.47;;;;;;;;;;4341273;32;318234;-82
2024/04/14 12:13:47;;;;;;;15.20;5.62;;;;;;;;;;4350650;32;317235;-81
2024/04/14 12:16:15;;;;;;;6.95;3.80;;;;;;;;;;4340723;32;317690;-81
2024/04/14 12:18:42;;;;;;;7.75;3.47;;;;;;;;;;4344758;32;317980;-82
2024/04/14 12:21:09;;;;;;;8.27;3.25;;;;;;;;;;4342794;32;317236;-82
2024/04/14 12:23:36;;;;;;;6.87;3.45;;;;;;;;;;4352073;32;317469;-81
2024/04/14 12:26:03;;;;;;;8.20;4.55;;;;;;;;;;4341304;32;317448;-81
2024/04/14 12:28:29;;;;;;;13.73;3.87;;;;;;;;;;4321537;32;317568;-82
2024/04/14 12:30:58;;;;;;;10.18;4.55;;;;;;;;;;4337958;32;318095;-82
2024/04/14 12:33:23;;;;;;;10.20;5.53;;;;;;;;;;4327206;32;317949;-82
2024/04/14 12:35:50;;;;;;;10.60;7.65;;;;;;;;;;4335864;32;317776;-82
2024/04/14 12:38:21;;;;;;;17.52;7.90;;;;;;;;;;4339369;32;318026;-82
2024/04/14 12:40:49;;;;;;;16.17;8.65;;;;;;;;;;4349437;32;318218;-81
2024/04/14 12:43:14;;;;;;;20.97;12.63;;;;;;;;;;4340319;32;351685;-81
2024/04/14 12:45:44;;;;;;;17.58;12.32;;;;;;;;;;4351077;32;327854;-81
2024/04/14 12:48:17;;;;;;;21.00;14.07;;;;;;;;;;4344289;32;318554;-82
2024/04/14 12:50:46;;;;;;;20.35;12.15;;;;;;;;;;4352998;32;318311;-82
2024/04/14 12:53:14;;;;;;;16.05;11.82;;;;;;;;;;4347543;32;318608;-82
2024/04/14 12:55:42;;;;;;;32.00;15.23;;;;;;;;;;4359097;32;318505;-82
2024/04/14 12:58:09;;;;;;;20.25;14.43;;;;;;;;;;4349408;32;318942;-81
2024/04/14 13:00:36;;;;;;;25.08;15.18;;;;;;;;;;4352979;32;318311;-82
2024/04/14 13:03:05;;;;;;;25.08;16.67;;;;;;;;;;4359839;32;318158;-82
2024/04/14 13:05:33;;;;;;;27.48;16.40;;;;;;;;;;4346100;32;347725;-82
2024/04/14 13:08:01;;;;;;;19.15;14.15;;;;;;;;;;4356139;32;318637;-81
2024/04/14 13:10:28;;;;;;;18.62;11.52;;;;;;;;;;4342577;32;319356;-81
2024/04/14 13:12:55;;;;;;;18.87;11.20;;;;;;;;;;4359314;32;318197;-82
2024/04/14 13:15:22;;;;;;;18.60;11.23;;;;;;;;;;4349404;32;318346;-82
2024/04/14 13:17:50;;;;;;;18.92;12.50;;;;;;;;;;4355722;32;320086;-82
2024/04/14 13:20:17;;;;;;;20.12;12.45;;;;;;;;;;4344637;32;319329;-78
2024/04/14 13:22:45;;;;;;;17.42;11.85;;;;;;;;;;4339876;32;319232;-78
2024/04/14 13:25:11;;;;;;;20.70;11.43;;;;;;;;;;4333652;32;319550;-78
2024/04/14 13:27:37;;;;;;;22.25;11.85;;;;;;;;;;4342494;32;319498;-78
2024/04/14 13:30:04;;;;;;;18.50;12.07;;;;;;;;;;4345147;32;319514;-78
2024/04/14 13:32:31;;;;;;;15.90;9.18;;;;;;;;;;4328384;32;319178;-77
2024/04/14 13:34:56;;;;;;;14.07;8.73;;;;;;;;;;4342658;32;356663;-78
2024/04/14 13:37:23;;;;;;;12.82;7.60;;;;;;;;;;4333812;32;326418;-77
2024/04/14 13:39:50;;;;;;;8.00;5.95;;;;;;;;;;4345664;32;318479;-78
2024/04/14 13:42:17;;;;;;;11.93;4.95;;;;;;;;;;4338042;32;316999;-78
2024/04/14 13:44:43;;;;;;;10.88;4.72;;;;;;;;;;4340961;32;318203;-77
2024/04/14 13:47:10;;;;;;;7.12;5.25;;;;;;;;;;4323000;32;318560;-77
2024/04/14 13:49:36;;;;;;;7.53;4.87;;;;;;;;;;4329984;32;317136;-77
2024/04/14 13:52:03;;;;;;;11.00;3.70;;;;;;;;;;4331749;32;317495;-77
2024/04/14 13:54:29;;;;;;;11.75;3.45;;;;;;;;;;4317025;32;318342;-78
2024/04/14 13:56:57;;;;;;;6.90;3.17;;;;;;;;;;4339777;32;318121;-77
2024/04/14 13:59:22;;;;;;;5.18;3.12;;;;;;;;;;4337560;32;319826;-77
2024/04/14 14:01:49;;;;;;;6.07;3.60;;;;;;;;;;4347157;32;354431;-77
2024/04/14 14:04:15;;;;;;;7.43;3.80;;;;;;;;;;4339359;32;317152;-77
2024/04/14 14:06:42;;;;;;;8.93;2.78;;;;;;;;;;4341308;32;317292;-77
2024/04/14 14:09:09;;;;;;;3.22;2.50;;;;;;;;;;4334274;32;351465;-77
2024/04/14 14:11:36;;;;;;;10.95;2.95;;;;;;;;;;4348214;32;317176;-77
2024/04/14 14:14:03;;;;;;;10.38;3.53;;;;;;;;;;4347781;32;318022;-77
2024/04/14 14:16:30;;;;;;;11.15;2.83;;;;;;;;;;4330750;32;317723;-77
2024/04/14 14:18:55;;;;;;;8.00;3.12;;;;;;;;;;4347766;32;318404;-77
2024/04/14 14:21:22;;;;;;;7.93;2.67;;;;;;;;;;4337803;32;317471;-78
2024/04/14 14:23:48;;;;;;;4.30;3.00;;;;;;;;;;4348535;32;317127;-79